createdAt,value
2022-11-16T00:00:32.175Z,99233.47
2022-11-16T00:03:03.293Z,99236.91
2022-11-16T00:05:32.079Z,99243.84
2022-11-16T00:08:00.187Z,99246.47
2022-11-16T00:10:30.836Z,99240.53
2022-11-16T00:12:59.100Z,99242.34
2022-11-16T00:15:27.733Z,99244.97
2022-11-16T00:17:59.565Z,99238.56
2022-11-16T00:20:27.789Z,99236.91
2022-11-16T00:22:55.959Z,99237.06
2022-11-16T00:25:23.818Z,99253.06
2022-11-16T00:27:51.795Z,99245.16
2022-11-16T00:30:20.018Z,99244.19
2022-11-16T00:32:47.880Z,99245.97
2022-11-16T00:35:19.676Z,99241.53
2022-11-16T00:37:47.527Z,99241.69
2022-11-16T00:40:15.705Z,99241.03
2022-11-16T00:42:43.755Z,99247.94
2022-11-16T00:45:14.745Z,99243.66
2022-11-16T00:47:42.680Z,99244.66
2022-11-16T00:50:10.913Z,99242.00
2022-11-16T00:52:42.438Z,99245.78
2022-11-16T00:55:10.977Z,99239.69
2022-11-16T00:57:38.806Z,99256.50
2022-11-16T01:00:07.717Z,99248.59
2022-11-16T01:02:36.285Z,99250.41
2022-11-16T01:05:04.639Z,99252.22
2022-11-16T01:07:32.789Z,99244.28
2022-11-16T01:10:02.241Z,99241.66
2022-11-16T01:12:29.187Z,99233.88
2022-11-16T01:14:57.297Z,99246.28
2022-11-16T01:17:25.600Z,99238.50
2022-11-16T01:19:54.479Z,99237.66
2022-11-16T01:22:22.598Z,99232.25
2022-11-16T01:24:50.617Z,99229.75
2022-11-16T01:27:19.865Z,99223.81
2022-11-16T01:29:48.340Z,99230.91
2022-11-16T01:32:16.932Z,99222.16
2022-11-16T01:34:45.572Z,99225.66
2022-11-16T01:37:24.693Z,99222.16
2022-11-16T01:39:52.725Z,99220.53
2022-11-16T01:42:24.168Z,99230.09
2022-11-16T01:45:03.178Z,99222.31
2022-11-16T01:47:31.515Z,99214.25
2022-11-16T01:50:05.425Z,99210.94
2022-11-16T01:52:37.957Z,99208.31
2022-11-16T01:55:07.328Z,99210.25
2022-11-16T01:57:56.392Z,99209.94
2022-11-16T02:00:24.863Z,99214.63
2022-11-16T02:03:03.724Z,99202.88
2022-11-16T02:06:05.821Z,99209.16
2022-11-16T02:09:19.760Z,99202.22
2022-11-16T02:12:09.896Z,99197.28
2022-11-16T02:14:53.760Z,99190.03
2022-11-16T02:17:33.498Z,99185.38
2022-11-16T02:20:31.491Z,99190.16
2022-11-16T02:23:21.312Z,99184.72
2022-11-16T02:25:59.479Z,99187.34
2022-11-16T02:28:38.074Z,99190.34
2022-11-16T02:31:14.263Z,99182.44
2022-11-16T02:33:45.474Z,99181.44
2022-11-16T02:36:21.607Z,99180.75
2022-11-16T02:38:55.598Z,99176.47
2022-11-16T02:41:26.381Z,99175.97
2022-11-16T02:44:03.584Z,99174.97
2022-11-16T02:46:38.528Z,99184.06
2022-11-16T02:49:12.755Z,99182.06
2022-11-16T02:51:43.456Z,99175.44
2022-11-16T02:54:16.125Z,99176.44
2022-11-16T02:56:54.553Z,99171.50
2022-11-16T02:59:30.808Z,99166.72
2022-11-16T03:02:15.215Z,99165.75
2022-11-16T03:04:47.402Z,99163.63
2022-11-16T03:07:18.626Z,99156.66
2022-11-16T03:10:08.677Z,99152.72
2022-11-16T03:12:37.720Z,99148.75
2022-11-16T03:15:10.835Z,99151.53
2022-11-16T03:17:44.503Z,99144.25
2022-11-16T03:20:16.152Z,99149.84
2022-11-16T03:22:47.422Z,99142.09
2022-11-16T03:25:42.580Z,99157.75
2022-11-16T03:28:16.295Z,99149.66
2022-11-16T03:30:53.880Z,99146.22
2022-11-16T03:33:28.914Z,99145.75
2022-11-16T03:36:02.678Z,99150.03
2022-11-16T03:38:36.915Z,99153.34
2022-11-16T03:41:09.875Z,99160.59
2022-11-16T03:43:40.333Z,99153.34
2022-11-16T03:46:11.584Z,99154.94
2022-11-16T03:48:41.920Z,99155.63
2022-11-16T03:51:15.972Z,99157.59
2022-11-16T03:53:44.048Z,99149.84
2022-11-16T03:56:14.610Z,99155.56
2022-11-16T03:58:42.542Z,99154.91
2022-11-16T04:01:11.051Z,99147.38
2022-11-16T04:03:40.991Z,99143.09
2022-11-16T04:06:31.112Z,99152.31
2022-11-16T04:09:25.561Z,99151.69
2022-11-16T04:12:11.487Z,99149.06
2022-11-16T04:14:57.746Z,99158.09
2022-11-16T04:17:46.702Z,99158.56
2022-11-16T04:20:34.685Z,99153.63
2022-11-16T04:23:26.148Z,99161.53
2022-11-16T04:25:54.847Z,99157.69
2022-11-16T04:28:27.537Z,99151.97
2022-11-16T04:31:20.671Z,99159.53
2022-11-16T04:34:27.247Z,99157.50
2022-11-16T04:37:17.476Z,99162.44
2022-11-16T04:39:46.159Z,99168.03
2022-11-16T04:42:15.935Z,99173.00
2022-11-16T04:45:04.216Z,99166.25
2022-11-16T04:47:45.871Z,99167.22
2022-11-16T04:50:14.756Z,99164.41
2022-11-16T04:52:44.996Z,99171.66
2022-11-16T04:55:14.775Z,99171.97
2022-11-16T04:57:44.827Z,99163.53
2022-11-16T05:00:16.089Z,99154.31
2022-11-16T05:02:45.731Z,99157.75
2022-11-16T05:05:14.469Z,99159.56
2022-11-16T05:07:46.244Z,99168.00
2022-11-16T05:10:23.923Z,99177.22
2022-11-16T05:12:53.512Z,99174.31
2022-11-16T05:15:21.842Z,99169.84
2022-11-16T05:17:51.200Z,99171.84
2022-11-16T05:20:43.272Z,99179.28
2022-11-16T05:23:26.913Z,99184.13
2022-11-16T05:25:55.997Z,99196.97
2022-11-16T05:28:23.905Z,99195.34
2022-11-16T05:30:52.645Z,99195.94
2022-11-16T05:33:24.056Z,99195.81
2022-11-16T05:35:52.506Z,99197.44
2022-11-16T05:38:22.964Z,99195.63
2022-11-16T05:40:55.449Z,99194.16
2022-11-16T05:43:23.985Z,99196.47
2022-11-16T05:46:01.239Z,99190.69
2022-11-16T05:48:31.056Z,99190.53
2022-11-16T05:50:59.859Z,99193.69
2022-11-16T05:53:32.139Z,99192.53
2022-11-16T05:56:00.289Z,99185.91
2022-11-16T05:58:29.402Z,99190.69
2022-11-16T06:00:58.876Z,99189.19
2022-11-16T06:03:29.596Z,99195.44
2022-11-16T06:05:57.906Z,99193.28
2022-11-16T06:08:27.884Z,99193.94
2022-11-16T06:11:03.031Z,99195.91
2022-11-16T06:13:34.412Z,99203.19
2022-11-16T06:16:04.393Z,99197.75
2022-11-16T06:18:37.461Z,99197.59
2022-11-16T06:21:06.320Z,99200.38
2022-11-16T06:23:35.037Z,99202.06
2022-11-16T06:26:05.980Z,99209.28
2022-11-16T06:31:57.268Z,99217.22
2022-11-16T06:34:25.401Z,99219.44
2022-11-16T06:36:56.315Z,99219.72
2022-11-16T06:39:24.477Z,99221.88
2022-11-16T06:41:54.828Z,99222.41
2022-11-16T06:44:24.009Z,99221.94
2022-11-16T06:46:57.999Z,99220.97
2022-11-16T06:49:26.148Z,99224.28
2022-11-16T06:51:58.491Z,99229.41
2022-11-16T06:54:27.559Z,99231.72
2022-11-16T06:56:57.195Z,99228.91
2022-11-16T06:59:28.101Z,99232.38
2022-11-16T07:01:56.070Z,99227.41
2022-11-16T07:04:29.495Z,99230.22
2022-11-16T07:07:00.429Z,99235.47
2022-11-16T07:09:28.823Z,99238.63
2022-11-16T07:11:59.000Z,99235.13
2022-11-16T07:14:33.714Z,99233.97
2022-11-16T07:17:08.037Z,99232.47
2022-11-16T07:19:37.759Z,99244.47
2022-11-16T07:22:07.064Z,99248.47
2022-11-16T07:24:35.309Z,99240.09
2022-11-16T07:27:05.599Z,99241.56
2022-11-16T07:29:37.050Z,99247.50
2022-11-16T07:32:14.422Z,99253.28
2022-11-16T07:35:01.211Z,99251.00
2022-11-16T07:37:29.978Z,99252.19
2022-11-16T07:39:58.895Z,99253.84
2022-11-16T07:42:28.480Z,99252.84
2022-11-16T07:45:16.790Z,99262.59
2022-11-16T07:47:53.561Z,99265.84
2022-11-16T07:50:40.428Z,99274.00
2022-11-16T07:53:08.868Z,99281.97
2022-11-16T07:55:39.085Z,99283.97
2022-11-16T07:58:08.562Z,99279.84
2022-11-16T08:00:36.944Z,99275.72
2022-11-16T08:03:24.399Z,99278.53
2022-11-16T08:06:00.335Z,99276.19
2022-11-16T08:08:35.403Z,99279.97
2022-11-16T08:11:04.939Z,99282.75
2022-11-16T08:13:39.556Z,99286.44
2022-11-16T08:16:11.361Z,99287.28
2022-11-16T08:18:41.727Z,99281.22
2022-11-16T08:21:12.619Z,99288.53
2022-11-16T08:23:41.555Z,99283.97
2022-11-16T08:26:14.260Z,99287.19
2022-11-16T08:28:46.687Z,99293.31
2022-11-16T08:31:21.007Z,99295.66
2022-11-16T08:33:53.096Z,99286.91
2022-11-16T08:36:23.523Z,99290.91
2022-11-16T08:38:53.278Z,99299.31
2022-11-16T08:41:24.073Z,99304.59
2022-11-16T08:43:54.071Z,99313.53
2022-11-16T08:46:23.354Z,99311.25
2022-11-16T08:48:59.008Z,99317.34
2022-11-16T08:51:27.337Z,99320.19
2022-11-16T08:54:03.663Z,99331.91
2022-11-16T08:56:35.640Z,99326.47
2022-11-16T08:59:05.964Z,99333.59
2022-11-16T09:01:34.245Z,99344.38
2022-11-16T09:04:02.082Z,99339.56
2022-11-16T09:06:30.053Z,99337.25
2022-11-16T09:08:58.657Z,99336.09
2022-11-16T09:11:27.055Z,99339.56
2022-11-16T09:13:56.329Z,99341.06
2022-11-16T09:16:28.031Z,99329.81
2022-11-16T09:18:56.369Z,99331.97
2022-11-16T09:21:28.070Z,99323.50
2022-11-16T09:23:57.969Z,99329.44
2022-11-16T09:26:26.650Z,99326.34
2022-11-16T09:28:56.794Z,99331.00
2022-11-16T09:31:27.654Z,99336.16
2022-11-16T09:33:58.116Z,99327.09
2022-11-16T09:36:31.177Z,99334.25
2022-11-16T09:42:01.402Z,99337.91
2022-11-16T09:44:54.391Z,99335.91
2022-11-16T09:47:27.590Z,99341.56
2022-11-16T09:50:03.018Z,99339.91
2022-11-16T09:52:35.993Z,99340.41
2022-11-16T09:55:24.200Z,99351.47
2022-11-16T09:57:56.590Z,99357.06
2022-11-16T10:00:25.281Z,99353.13
2022-11-16T10:03:03.691Z,99357.41
2022-11-16T10:05:38.101Z,99354.75
2022-11-16T10:08:14.446Z,99354.59
2022-11-16T10:10:50.895Z,99355.75
2022-11-16T10:13:28.549Z,99355.75
2022-11-16T10:16:04.087Z,99354.75
2022-11-16T10:18:56.765Z,99356.59
2022-11-16T10:21:49.736Z,99356.56
2022-11-16T10:24:46.822Z,99350.56
2022-11-16T10:27:32.784Z,99350.25
2022-11-16T10:30:09.796Z,99347.94
2022-11-16T10:32:48.237Z,99345.25
2022-11-16T10:35:27.438Z,99340.09
2022-11-16T10:37:58.975Z,99343.91
2022-11-16T10:40:30.294Z,99343.88
2022-11-16T10:43:05.359Z,99349.72
2022-11-16T10:45:40.291Z,99347.06
2022-11-16T10:48:18.765Z,99339.72
2022-11-16T10:50:52.727Z,99339.66
2022-11-16T10:53:28.303Z,99338.38
2022-11-16T10:56:13.042Z,99322.81
2022-11-16T10:58:53.809Z,99321.53
2022-11-16T11:01:29.737Z,99331.16
2022-11-16T11:03:58.508Z,99326.06
2022-11-16T11:06:28.069Z,99334.84
2022-11-16T11:08:55.968Z,99325.03
2022-11-16T11:11:42.192Z,99328.94
2022-11-16T11:14:15.337Z,99321.94
2022-11-16T11:16:43.670Z,99325.06
2022-11-16T11:19:26.072Z,99328.47
2022-11-16T11:21:59.067Z,99317.81
2022-11-16T11:24:45.361Z,99314.63
2022-11-16T11:27:14.036Z,99316.44
2022-11-16T11:29:44.083Z,99309.28
2022-11-16T11:32:22.635Z,99309.81
2022-11-16T11:34:57.158Z,99313.88
2022-11-16T11:37:30.877Z,99319.53
2022-11-16T11:40:19.684Z,99321.31
2022-11-16T11:42:54.650Z,99316.56
2022-11-16T11:45:26.112Z,99304.88
2022-11-16T11:48:00.471Z,99304.66
2022-11-16T11:50:39.879Z,99300.31
2022-11-16T11:53:21.875Z,99300.47
2022-11-16T11:55:55.903Z,99298.63
2022-11-16T11:58:30.789Z,99293.06
2022-11-16T12:01:29.008Z,99294.09
2022-11-16T12:04:32.943Z,99298.31
2022-11-16T12:07:12.587Z,99304.88
2022-11-16T12:09:49.474Z,99295.53
2022-11-16T12:12:36.067Z,99292.78
2022-11-16T12:15:27.038Z,99288.63
2022-11-16T12:18:09.357Z,99286.00
2022-11-16T12:20:50.167Z,99280.34
2022-11-16T12:23:35.686Z,99277.88
2022-11-16T12:26:12.152Z,99273.38
2022-11-16T12:28:52.605Z,99278.75
2022-11-16T12:31:37.390Z,99279.50
2022-11-16T12:34:15.090Z,99274.84
2022-11-16T12:36:52.387Z,99267.50
2022-11-16T12:39:24.943Z,99263.41
2022-11-16T12:42:33.910Z,99265.09
2022-11-16T12:45:32.069Z,99258.78
2022-11-16T12:48:22.161Z,99258.69
2022-11-16T12:50:59.889Z,99256.78
2022-11-16T12:53:45.159Z,99254.44
2022-11-16T12:56:25.900Z,99252.63
2022-11-16T12:59:15.753Z,99252.97
2022-11-16T13:01:49.798Z,99246.03
2022-11-16T13:04:23.090Z,99242.09
2022-11-16T13:06:56.937Z,99249.19
2022-11-16T13:09:28.735Z,99249.50
2022-11-16T13:11:59.302Z,99243.88
2022-11-16T13:14:35.258Z,99246.16
2022-11-16T13:17:06.853Z,99237.16
2022-11-16T13:19:39.507Z,99230.69
2022-11-16T13:22:13.731Z,99224.88
2022-11-16T13:24:50.628Z,99221.38
2022-11-16T13:27:32.544Z,99210.31
2022-11-16T13:30:07.026Z,99209.50
2022-11-16T13:32:57.212Z,99209.03
2022-11-16T13:35:25.620Z,99210.03
2022-11-16T13:37:53.479Z,99206.53
2022-11-16T13:40:24.974Z,99204.53
2022-11-16T13:43:03.344Z,99200.59
2022-11-16T13:45:38.260Z,99205.91
2022-11-16T13:48:18.530Z,99199.97
2022-11-16T13:50:51.936Z,99208.34
2022-11-16T13:54:32.685Z,99194.69
2022-11-16T13:56:25.571Z,99187.66
2022-11-16T13:58:57.017Z,99184.22
2022-11-16T14:01:59.344Z,99173.13
2022-11-16T14:04:56.254Z,99167.50
2022-11-16T14:07:36.295Z,99174.50
2022-11-16T14:10:08.646Z,99179.16
2022-11-16T14:12:58.524Z,99178.31
2022-11-16T14:15:34.378Z,99186.47
2022-11-16T14:18:37.316Z,99180.69
2022-11-16T14:21:13.753Z,99185.72
2022-11-16T14:24:36.757Z,99188.16
2022-11-16T14:27:15.994Z,99191.69
2022-11-16T14:29:55.141Z,99184.75
2022-11-16T14:32:26.147Z,99184.41
2022-11-16T14:34:57.829Z,99179.28
2022-11-16T14:37:34.433Z,99169.56
2022-11-16T14:40:07.880Z,99168.56
2022-11-16T14:43:09.431Z,99160.50
2022-11-16T14:45:38.063Z,99156.56
2022-11-16T14:48:14.526Z,99158.88
2022-11-16T14:50:46.731Z,99167.81
2022-11-16T14:53:19.060Z,99164.69
2022-11-16T14:55:49.830Z,99164.69
2022-11-16T14:58:20.280Z,99160.25
2022-11-16T15:00:56.561Z,99176.31
2022-11-16T15:03:29.854Z,99174.81
2022-11-16T15:06:01.163Z,99169.88
2022-11-16T15:08:34.463Z,99165.59
2022-11-16T15:11:02.644Z,99158.63
2022-11-16T15:13:33.236Z,99151.88
2022-11-16T15:16:15.714Z,99142.97
2022-11-16T15:18:57.173Z,99154.53
2022-11-16T15:21:27.494Z,99153.72
2022-11-16T15:24:23.608Z,99147.78
2022-11-16T15:26:44.379Z,99144.66
2022-11-16T15:29:16.679Z,99141.88
2022-11-16T15:31:44.966Z,99140.88
2022-11-16T15:34:14.060Z,99145.69
2022-11-16T15:36:43.322Z,99144.03
2022-11-16T15:39:15.767Z,99147.03
2022-11-16T15:41:44.664Z,99136.25
2022-11-16T15:44:17.053Z,99143.91
2022-11-16T15:46:48.753Z,99143.41
2022-11-16T15:49:28.622Z,99130.63
2022-11-16T15:51:58.536Z,99130.00
2022-11-16T15:54:28.426Z,99126.53
2022-11-16T15:57:06.755Z,99118.94
2022-11-16T15:59:37.140Z,99119.94
2022-11-16T16:02:05.979Z,99113.31
2022-11-16T16:04:33.888Z,99116.94
2022-11-16T16:07:03.476Z,99119.28
2022-11-16T16:09:33.569Z,99120.94
2022-11-16T16:12:18.512Z,99115.16
2022-11-16T16:14:47.197Z,99112.03
2022-11-16T16:17:24.345Z,99106.25
2022-11-16T16:19:56.617Z,99111.69
2022-11-16T16:22:29.596Z,99103.78
2022-11-16T16:24:57.861Z,99101.13
2022-11-16T16:27:28.372Z,99102.97
2022-11-16T16:29:58.248Z,99101.63
2022-11-16T16:32:29.181Z,99098.16
2022-11-16T16:34:59.147Z,99092.22
2022-11-16T16:37:30.833Z,99095.88
2022-11-16T16:40:00.644Z,99092.38
2022-11-16T16:42:28.916Z,99091.56
2022-11-16T16:45:00.353Z,99092.72
2022-11-16T16:47:28.334Z,99098.16
2022-11-16T16:49:57.498Z,99096.69
2022-11-16T16:52:25.449Z,99098.84
2022-11-16T16:54:54.673Z,99099.53
2022-11-16T16:57:22.684Z,99098.53
2022-11-16T16:59:50.598Z,99098.34
2022-11-16T17:02:18.704Z,99093.25
2022-11-16T17:04:48.339Z,99095.88
2022-11-16T17:07:17.062Z,99091.75
2022-11-16T17:09:45.317Z,99091.75
2022-11-16T17:12:17.494Z,99091.09
2022-11-16T17:14:51.424Z,99079.88
2022-11-16T17:17:20.418Z,99076.59
2022-11-16T17:19:48.727Z,99081.50
2022-11-16T17:22:16.844Z,99081.34
2022-11-16T17:24:45.059Z,99077.38
2022-11-16T17:27:13.153Z,99068.66
2022-11-16T17:29:43.105Z,99067.81
2022-11-16T17:32:13.520Z,99073.09
2022-11-16T17:34:41.776Z,99068.50
2022-11-16T17:37:09.821Z,99069.31
2022-11-16T17:39:37.754Z,99067.16
2022-11-16T17:42:08.652Z,99068.16
2022-11-16T17:44:37.358Z,99059.09
2022-11-16T17:47:07.392Z,99066.34
2022-11-16T17:49:37.864Z,99065.84
2022-11-16T17:52:06.209Z,99060.09
2022-11-16T17:54:34.250Z,99060.25
2022-11-16T17:57:02.229Z,99058.75
2022-11-16T17:59:31.387Z,99061.56
2022-11-16T18:01:59.230Z,99058.75
2022-11-16T18:04:28.661Z,99056.94
2022-11-16T18:06:57.464Z,99055.13
2022-11-16T18:09:44.463Z,99063.84
2022-11-16T18:12:12.375Z,99066.00
2022-11-16T18:14:42.407Z,99061.91
2022-11-16T18:17:10.780Z,99064.19
2022-11-16T18:19:40.057Z,99055.94
2022-11-16T18:22:08.086Z,99054.13
2022-11-16T18:24:36.137Z,99051.94
2022-11-16T18:27:04.105Z,99040.25
2022-11-16T18:29:35.246Z,99040.75
2022-11-16T18:32:03.266Z,99035.47
2022-11-16T18:34:31.847Z,99032.13
2022-11-16T18:37:03.076Z,99029.19
2022-11-16T18:39:34.080Z,99028.38
2022-11-16T18:42:02.152Z,99023.22
2022-11-16T18:44:30.437Z,99019.28
2022-11-16T18:46:58.245Z,99022.63
2022-11-16T18:49:26.272Z,99021.78
2022-11-16T18:51:54.098Z,99015.00
2022-11-16T18:54:23.446Z,99001.81
2022-11-16T18:56:51.350Z,98998.03
2022-11-16T18:59:21.413Z,99003.66
2022-11-16T19:01:49.286Z,99003.50
2022-11-16T19:04:17.328Z,98999.53
2022-11-16T19:06:45.244Z,98996.22
2022-11-16T19:09:13.390Z,98988.81
2022-11-16T19:11:42.829Z,98993.09
2022-11-16T19:14:10.896Z,98985.69
2022-11-16T19:16:43.468Z,98982.69
2022-11-16T19:19:15.621Z,98974.97
2022-11-16T19:21:43.897Z,98983.88
2022-11-16T19:24:12.101Z,98983.19
2022-11-16T19:26:40.095Z,98974.63
2022-11-16T19:29:09.687Z,98984.88
2022-11-16T19:31:37.823Z,98976.44
2022-11-16T19:34:07.938Z,98978.56
2022-11-16T19:36:37.646Z,98977.25
2022-11-16T19:39:08.218Z,98979.56
2022-11-16T19:41:36.364Z,98983.84
2022-11-16T19:44:04.450Z,98988.78
2022-11-16T19:46:36.048Z,98999.19
2022-11-16T19:49:08.553Z,98991.63
2022-11-16T19:51:36.849Z,98989.78
2022-11-16T19:54:05.030Z,98989.94
2022-11-16T19:56:43.402Z,98993.44
2022-11-16T19:59:13.657Z,98986.50
2022-11-16T20:01:42.963Z,98977.09
2022-11-16T20:04:10.901Z,98984.19
2022-11-16T20:06:40.595Z,98985.66
2022-11-16T20:09:12.438Z,98985.66
2022-11-16T20:11:41.748Z,98982.88
2022-11-16T20:14:11.572Z,98990.28
2022-11-16T20:16:41.514Z,98984.38
2022-11-16T20:19:11.992Z,98979.09
2022-11-16T20:21:41.562Z,98976.59
2022-11-16T20:24:12.570Z,98977.75
2022-11-16T20:26:45.150Z,98978.91
2022-11-16T20:29:13.651Z,98983.69
2022-11-16T20:31:45.377Z,98987.00
2022-11-16T20:34:16.657Z,98981.06
2022-11-16T20:36:49.600Z,98976.78
2022-11-16T20:39:28.721Z,98971.50
2022-11-16T20:41:56.945Z,98969.84
2022-11-16T20:44:24.746Z,98959.28
2022-11-16T20:46:53.165Z,98945.75
2022-11-16T20:49:23.126Z,98944.44
2022-11-16T20:51:52.186Z,98943.63
2022-11-16T20:54:20.016Z,98936.53
2022-11-16T20:56:54.041Z,98943.81
2022-11-16T20:59:22.287Z,98936.19
2022-11-16T21:01:53.401Z,98940.66
2022-11-16T21:04:23.639Z,98936.38
2022-11-16T21:06:51.993Z,98940.31
2022-11-16T21:09:28.086Z,98931.59
2022-11-16T21:12:13.698Z,98925.63
2022-11-16T21:14:41.706Z,98930.09
2022-11-16T21:17:09.628Z,98922.34
2022-11-16T21:19:39.342Z,98923.50
2022-11-16T21:22:10.300Z,98917.41
2022-11-16T21:24:38.295Z,98911.66
2022-11-16T21:27:06.264Z,98900.59
2022-11-16T21:29:36.643Z,98890.72
2022-11-16T21:32:04.817Z,98901.25
2022-11-16T21:34:37.276Z,98886.72
2022-11-16T21:37:09.688Z,98885.09
2022-11-16T21:39:37.540Z,98881.31
2022-11-16T21:42:06.243Z,98881.16
2022-11-16T21:44:41.957Z,98886.06
2022-11-16T21:47:10.193Z,98876.00
2022-11-16T21:49:59.284Z,98880.13
2022-11-16T21:52:30.063Z,98879.66
2022-11-16T21:55:05.868Z,98876.81
2022-11-16T21:57:33.851Z,98879.31
2022-11-16T22:00:02.105Z,98871.25
2022-11-16T22:02:39.538Z,98875.03
2022-11-16T22:05:26.390Z,98870.09
2022-11-16T22:07:56.062Z,98863.34
2022-11-16T22:10:24.016Z,98862.00
2022-11-16T22:12:51.912Z,98851.28
2022-11-16T22:15:19.801Z,98853.44
2022-11-16T22:17:47.612Z,98854.09
2022-11-16T22:20:15.565Z,98850.81
2022-11-16T22:22:43.510Z,98851.94
2022-11-16T22:25:14.034Z,98847.34
2022-11-16T22:27:58.756Z,98837.28
2022-11-16T22:30:30.457Z,98832.00
2022-11-16T22:32:58.310Z,98832.00
2022-11-16T22:35:26.501Z,98834.66
2022-11-16T22:37:54.384Z,98830.34
2022-11-16T22:40:23.775Z,98828.69
2022-11-16T22:42:53.410Z,98831.53
2022-11-16T22:45:21.370Z,98826.88
2022-11-16T22:47:53.605Z,98824.25
2022-11-16T22:50:24.015Z,98830.19
2022-11-16T22:52:51.963Z,98823.09
2022-11-16T22:55:19.878Z,98833.66
2022-11-16T22:57:49.275Z,98833.66
2022-11-16T23:00:18.678Z,98832.66
2022-11-16T23:02:47.256Z,98824.75
2022-11-16T23:05:15.379Z,98818.97
2022-11-16T23:07:44.200Z,98816.84
2022-11-16T23:10:12.137Z,98812.88
2022-11-16T23:12:58.029Z,98803.66
2022-11-16T23:15:45.165Z,98807.09
2022-11-16T23:18:13.228Z,98800.34
2022-11-16T23:20:58.489Z,98800.66
2022-11-16T23:23:44.244Z,98804.47
2022-11-16T23:26:35.798Z,98801.66
2022-11-16T23:29:05.996Z,98800.03
2022-11-16T23:31:35.601Z,98795.75
2022-11-16T23:34:03.471Z,98787.63
2022-11-16T23:36:31.595Z,98783.72
2022-11-16T23:39:00.130Z,98775.94
2022-11-16T23:41:45.539Z,98756.69
2022-11-16T23:44:13.577Z,98749.22
2022-11-16T23:46:43.108Z,98756.31
2022-11-16T23:49:11.172Z,98747.41
2022-11-16T23:51:39.138Z,98743.50
2022-11-16T23:54:07.567Z,98739.66
2022-11-16T23:56:35.495Z,98734.38
2022-11-16T23:59:03.488Z,98729.13
